createdAt,value
2018-11-26T00:04:24.528Z,112.03
2018-11-26T00:09:27.743Z,106.10
2018-11-26T00:14:30.964Z,102.83
2018-11-26T00:19:34.184Z,111.55
2018-11-26T00:24:37.391Z,97.37
2018-11-26T00:29:40.657Z,103.67
2018-11-26T00:34:43.910Z,103.47
2018-11-26T00:39:47.152Z,110.92
2018-11-26T00:44:50.379Z,109.25
2018-11-26T00:49:53.615Z,99.30
2018-11-26T00:54:56.947Z,103.23
2018-11-26T01:00:00.176Z,78.85
2018-11-26T01:05:03.447Z,95.45
2018-11-26T01:10:06.704Z,92.30
2018-11-26T01:15:09.964Z,102.27
2018-11-26T01:20:13.220Z,64.07
2018-11-26T01:25:16.468Z,84.87
2018-11-26T01:30:19.720Z,88.30
2018-11-26T01:35:23.793Z,83.97
2018-11-26T01:40:32.502Z,86.63
2018-11-26T01:45:35.812Z,82.62
2018-11-26T01:50:39.052Z,70.83
2018-11-26T01:55:42.282Z,72.25
2018-11-26T02:00:45.517Z,70.00
2018-11-26T02:05:48.743Z,63.97
2018-11-26T02:10:52.069Z,70.63
2018-11-26T02:15:55.289Z,68.33
2018-11-26T02:20:58.538Z,69.27
2018-11-26T02:26:01.779Z,67.78
2018-11-26T02:31:05.259Z,68.12
2018-11-26T02:36:08.508Z,67.22
2018-11-26T02:41:11.727Z,59.58
2018-11-26T02:46:15.027Z,63.63
2018-11-26T02:51:18.260Z,59.90
2018-11-26T02:56:21.514Z,57.60
2018-11-26T03:01:24.660Z,62.00
2018-11-26T03:06:27.815Z,57.55
2018-11-26T03:11:30.972Z,60.05
2018-11-26T03:16:34.129Z,63.73
2018-11-26T03:21:37.276Z,38.90
2018-11-26T03:26:40.444Z,40.65
2018-11-26T03:31:43.653Z,51.70
2018-11-26T03:36:46.808Z,56.15
2018-11-26T03:41:50.097Z,59.40
2018-11-26T03:46:53.264Z,58.87
2018-11-26T03:51:56.456Z,55.55
2018-11-26T03:56:59.628Z,58.92
2018-11-26T04:02:02.799Z,57.15
2018-11-26T04:07:06.368Z,61.73
2018-11-26T04:12:09.633Z,60.92
2018-11-26T04:17:12.796Z,55.43
2018-11-26T04:22:15.950Z,58.45
2018-11-26T04:27:19.148Z,61.73
2018-11-26T04:32:22.337Z,60.23
2018-11-26T04:37:25.518Z,56.98
2018-11-26T04:42:28.696Z,56.60
2018-11-26T04:47:31.879Z,54.40
2018-11-26T04:52:35.135Z,51.18
2018-11-26T04:57:42.318Z,53.42
2018-11-26T05:02:41.613Z,52.80
2018-11-26T05:07:44.774Z,57.17
2018-11-26T05:12:47.966Z,57.00
2018-11-26T05:17:51.172Z,55.75
2018-11-26T05:22:54.363Z,56.68
2018-11-26T05:27:57.544Z,60.92
2018-11-26T05:33:00.724Z,63.60
2018-11-26T05:38:04.180Z,65.95
2018-11-26T05:43:07.340Z,65.30
2018-11-26T05:48:10.537Z,60.87
2018-11-26T05:53:13.693Z,65.07
2018-11-26T05:58:16.861Z,66.10
2018-11-26T06:03:20.069Z,64.77
2018-11-26T06:08:23.224Z,75.77
2018-11-26T06:13:26.400Z,75.77
2018-11-26T06:18:29.576Z,73.70
2018-11-26T06:23:32.746Z,67.90
2018-11-26T06:28:35.916Z,75.73
2018-11-26T06:33:39.071Z,73.40
2018-11-26T06:38:42.241Z,72.93
2018-11-26T06:43:45.410Z,82.83
2018-11-26T06:48:48.617Z,76.97
2018-11-26T06:53:51.872Z,79.70
2018-11-26T06:58:55.029Z,76.90
2018-11-26T07:03:58.188Z,88.35
2018-11-26T07:09:01.349Z,78.78
2018-11-26T07:14:05.370Z,81.08
2018-11-26T07:19:08.536Z,71.80
2018-11-26T07:24:11.688Z,77.80
2018-11-26T07:29:14.880Z,63.25
2018-11-26T07:34:18.064Z,76.30
2018-11-26T07:39:21.271Z,64.62
2018-11-26T07:44:24.465Z,79.50
2018-11-26T07:49:27.620Z,64.20
2018-11-26T07:54:30.772Z,68.33
2018-11-26T07:59:33.940Z,63.75
2018-11-26T08:04:37.109Z,72.90
2018-11-26T08:09:40.272Z,91.40
2018-11-26T08:14:43.445Z,101.37
2018-11-26T08:19:46.633Z,102.13
2018-11-26T08:24:49.889Z,108.30
2018-11-26T08:29:53.058Z,105.32
2018-11-26T08:34:56.224Z,97.75
2018-11-26T08:40:04.913Z,105.55
2018-11-26T08:45:14.328Z,102.43
2018-11-26T08:50:17.515Z,98.80
2018-11-26T08:55:20.796Z,95.67
2018-11-26T09:00:23.975Z,87.62
2018-11-26T09:05:32.593Z,77.50
2018-11-26T09:10:35.830Z,88.27
2018-11-26T09:15:38.962Z,77.03
2018-11-26T09:20:42.137Z,70.28
2018-11-26T09:25:46.208Z,68.15
2018-11-26T09:30:49.416Z,70.00
2018-11-26T09:35:52.744Z,67.45
2018-11-26T09:40:56.113Z,68.70
2018-11-26T09:45:59.296Z,65.20
2018-11-26T09:51:02.687Z,61.70
2018-11-26T09:56:12.485Z,63.78
2018-11-26T10:01:15.666Z,49.90
2018-11-26T10:06:18.848Z,55.87
2018-11-26T10:11:22.033Z,42.87
2018-11-26T10:16:25.229Z,53.95
2018-11-26T10:21:28.401Z,61.58
2018-11-26T10:26:31.596Z,59.03
2018-11-26T10:31:34.800Z,53.15
2018-11-26T10:36:38.016Z,46.95
2018-11-26T10:41:41.279Z,47.93
2018-11-26T10:46:44.452Z,47.03
2018-11-26T10:51:47.648Z,45.83
2018-11-26T10:56:50.908Z,44.88
2018-11-26T11:02:59.840Z,47.20
2018-11-26T11:08:03.027Z,44.73
2018-11-26T11:13:06.833Z,44.18
2018-11-26T11:18:10.004Z,43.73
2018-11-26T11:23:13.184Z,39.03
2018-11-26T11:28:16.362Z,40.97
2018-11-26T11:38:22.918Z,41.77
2018-11-26T11:43:26.119Z,39.40
2018-11-26T11:48:29.282Z,37.85
2018-11-26T11:53:32.469Z,40.88
2018-11-26T11:58:35.658Z,37.35
2018-11-26T12:03:38.889Z,38.33
2018-11-26T12:08:42.025Z,41.42
2018-11-26T12:13:45.209Z,44.90
2018-11-26T12:18:48.419Z,41.67
2018-11-26T12:23:51.634Z,36.83
2018-11-26T12:28:54.883Z,38.75
2018-11-26T12:33:58.029Z,35.25
2018-11-26T12:39:01.197Z,32.15
2018-11-26T12:44:04.380Z,42.50
2018-11-26T12:49:07.645Z,40.10
2018-11-26T12:54:10.846Z,40.17
2018-11-26T12:59:14.090Z,40.45
2018-11-26T13:04:17.264Z,30.77
2018-11-26T13:09:20.511Z,42.43
2018-11-26T13:14:23.685Z,41.48
2018-11-26T13:19:26.870Z,38.88
2018-11-26T13:24:30.058Z,40.78
2018-11-26T13:29:33.298Z,38.85
2018-11-26T13:34:36.958Z,38.48
2018-11-26T13:39:39.812Z,37.87
2018-11-26T13:44:42.986Z,37.40
2018-11-26T13:49:46.337Z,34.45
2018-11-26T13:54:49.502Z,25.90
2018-11-26T13:59:52.738Z,37.05
2018-11-26T14:04:55.922Z,34.33
2018-11-26T14:09:59.136Z,33.77
2018-11-26T14:15:02.406Z,24.00
2018-11-26T14:20:08.205Z,24.67
2018-11-26T14:25:15.281Z,34.30
2018-11-26T14:30:22.930Z,35.13
2018-11-26T14:35:26.189Z,32.60
2018-11-26T14:40:32.829Z,31.70
2018-11-26T14:45:36.026Z,32.75
2018-11-26T14:50:39.227Z,36.60
2018-11-26T14:55:42.401Z,33.60
2018-11-26T15:00:45.686Z,33.80
2018-11-26T15:05:48.887Z,30.25
2018-11-26T15:10:52.069Z,24.85
2018-11-26T15:15:55.267Z,26.10
2018-11-26T15:20:58.477Z,30.95
2018-11-26T15:26:01.687Z,29.95
2018-11-26T15:31:05.000Z,30.80
2018-11-26T15:36:08.194Z,31.97
2018-11-26T15:41:11.373Z,28.83
2018-11-26T15:46:14.702Z,26.57
2018-11-26T15:51:17.982Z,32.88
2018-11-26T15:56:21.200Z,32.20
2018-11-26T16:01:24.390Z,32.90
2018-11-26T16:06:27.583Z,31.35
2018-11-26T16:11:30.834Z,33.92
2018-11-26T16:16:34.130Z,34.55
2018-11-26T16:21:37.430Z,33.73
2018-11-26T16:26:40.641Z,34.17
2018-11-26T16:31:43.855Z,34.58
2018-11-26T16:36:47.055Z,32.85
2018-11-26T16:41:50.304Z,35.25
2018-11-26T16:46:53.497Z,32.75
2018-11-26T16:51:56.682Z,31.50
2018-11-26T16:56:59.870Z,31.27
2018-11-26T17:02:03.105Z,31.55
2018-11-26T17:07:06.338Z,33.40
2018-11-26T17:12:09.561Z,30.00
2018-11-26T17:17:12.746Z,33.10
2018-11-26T17:22:15.946Z,28.30
2018-11-26T17:27:19.142Z,30.35
2018-11-26T17:32:22.299Z,30.77
2018-11-26T17:37:25.466Z,34.20
2018-11-26T17:42:28.645Z,35.28
2018-11-26T17:47:31.801Z,34.78
2018-11-26T17:52:34.973Z,32.87
2018-11-26T17:57:38.486Z,32.77
2018-11-26T18:02:42.907Z,32.10
2018-11-26T18:07:48.706Z,34.60
2018-11-26T18:12:51.885Z,33.60
2018-11-26T18:17:55.223Z,31.55
2018-11-26T18:22:58.565Z,33.17
2018-11-26T18:28:05.736Z,32.45
2018-11-26T18:33:08.996Z,33.50
2018-11-26T18:38:12.687Z,38.40
2018-11-26T18:43:16.113Z,32.42
2018-11-26T18:48:19.321Z,34.35
2018-11-26T18:53:22.558Z,33.88
2018-11-26T18:58:25.753Z,32.20
2018-11-26T19:03:29.025Z,31.87
2018-11-26T19:08:32.290Z,30.95
2018-11-26T19:13:43.627Z,27.35
2018-11-26T19:18:46.885Z,31.87
2018-11-26T19:23:50.097Z,33.85
2018-11-26T19:28:53.314Z,31.97
2018-11-26T19:33:56.676Z,33.83
2018-11-26T19:39:00.018Z,33.33
2018-11-26T19:44:03.276Z,32.43
2018-11-26T19:49:06.666Z,31.90
2018-11-26T19:54:09.866Z,31.40
2018-11-26T19:59:13.144Z,31.00
2018-11-26T20:04:23.291Z,31.05
2018-11-26T20:09:26.595Z,31.93
2018-11-26T20:14:29.758Z,30.15
2018-11-26T20:19:33.241Z,33.38
2018-11-26T20:24:36.586Z,34.13
2018-11-26T20:29:40.049Z,34.37
2018-11-26T20:34:43.366Z,30.90
2018-11-26T20:39:46.830Z,25.05
2018-11-26T20:44:50.050Z,29.67
2018-11-26T20:49:53.248Z,34.58
2018-11-26T20:54:56.434Z,32.78
2018-11-26T20:59:59.626Z,35.40
2018-11-26T21:05:02.837Z,34.60
2018-11-26T21:10:08.925Z,33.02
2018-11-26T21:15:13.989Z,35.68
2018-11-26T21:20:23.023Z,34.35
2018-11-26T21:25:26.266Z,34.08
2018-11-26T21:30:29.439Z,35.07
2018-11-26T21:35:32.634Z,35.70
2018-11-26T21:40:35.792Z,37.45
2018-11-26T21:45:43.970Z,37.35
2018-11-26T21:50:47.146Z,38.60
2018-11-26T21:55:50.341Z,37.85
2018-11-26T22:00:55.452Z,37.33
2018-11-26T22:05:58.610Z,37.23
2018-11-26T22:11:01.785Z,42.08
2018-11-26T22:16:05.190Z,39.37
2018-11-26T22:21:08.352Z,39.83
2018-11-26T22:26:11.529Z,40.60
2018-11-26T22:31:14.782Z,38.28
2018-11-26T22:36:17.981Z,36.25
2018-11-26T22:41:21.178Z,39.70
2018-11-26T22:46:24.379Z,40.00
2018-11-26T22:51:27.546Z,35.00
2018-11-26T22:56:30.746Z,37.48
2018-11-26T23:01:33.947Z,35.85
2018-11-26T23:06:37.150Z,35.55
2018-11-26T23:11:40.358Z,32.67
2018-11-26T23:16:43.649Z,34.93
2018-11-26T23:21:46.822Z,31.10
2018-11-26T23:26:50.030Z,33.70
2018-11-26T23:31:53.246Z,33.60
2018-11-26T23:36:56.445Z,33.45
2018-11-26T23:41:59.630Z,32.30
2018-11-26T23:47:02.901Z,77.15
2018-11-26T23:52:06.106Z,32.90
2018-11-26T23:57:09.315Z,55.20
